Time;durP1;ratioP1;P1;durP2;ratioP2;P2;SDS_P1;SDS_P2;PMS_P1;PMS_P2;Temp;Humidity;BMP_temperature;BMP_pressure;BME280_temperature;BME280_humidity;BME280_pressure;Samples;Min_cycle;Max_cycle;Signal;HPM_P1;HPM_P2
2023/04/23 00:00:05;;;;;;;21.87;15.07;;;11.50;99.90;;;;;;5077239;28;20186;-80
2023/04/23 00:02:33;;;;;;;19.53;14.60;;;11.60;99.90;;;;;;5077225;28;20167;-79
2023/04/23 00:05:04;;;;;;;19.57;15.07;;;11.60;99.90;;;;;;5077537;28;20175;-79
2023/04/23 00:07:34;;;;;;;18.93;14.17;;;11.50;99.90;;;;;;5076789;28;20284;-79
2023/04/23 00:10:03;;;;;;;19.53;14.37;;;11.50;99.90;;;;;;5077281;28;20329;-81
2023/04/23 00:12:31;;;;;;;19.17;14.50;;;11.60;99.90;;;;;;5076895;28;20242;-79
2023/04/23 00:14:57;;;;;;;20.10;15.13;;;11.60;99.90;;;;;;5095072;28;20175;-79
2023/04/23 00:17:23;;;;;;;17.23;14.40;;;11.60;99.90;;;;;;5076904;28;20679;-81
2023/04/23 00:19:50;;;;;;;18.43;15.13;;;11.70;99.90;;;;;;5076923;28;20179;-81
2023/04/23 00:22:16;;;;;;;20.53;13.83;;;11.80;99.90;;;;;;5094851;28;20158;-79
2023/04/23 00:24:43;;;;;;;17.10;13.17;;;11.70;99.90;;;;;;5076810;28;20182;-80
2023/04/23 00:27:09;;;;;;;17.20;13.00;;;11.80;99.90;;;;;;5076604;28;20258;-79
2023/04/23 00:29:35;;;;;;;17.57;12.80;;;11.80;99.90;;;;;;5076736;28;20334;-80
2023/04/23 00:32:02;;;;;;;15.77;12.40;;;11.90;99.90;;;;;;5094807;28;20281;-80
2023/04/23 00:34:27;;;;;;;15.03;11.90;;;12.10;99.90;;;;;;5094383;28;20505;-79
2023/04/23 00:36:54;;;;;;;14.60;11.10;;;12.20;99.90;;;;;;5094735;28;20226;-79
2023/04/23 00:39:22;;;;;;;15.03;11.33;;;12.10;99.90;;;;;;5076428;28;20170;-80
2023/04/23 00:41:50;;;;;;;13.80;10.87;;;12.10;99.90;;;;;;5076422;28;20228;-79
2023/04/23 00:44:17;;;;;;;13.50;10.23;;;12.20;99.90;;;;;;5076344;28;20187;-81
2023/04/23 00:46:43;;;;;;;14.67;11.53;;;12.00;99.90;;;;;;5076328;28;20166;-79
2023/04/23 00:49:09;;;;;;;14.17;10.90;;;12.00;99.90;;;;;;5076046;28;20681;-78
2023/04/23 00:51:35;;;;;;;13.93;11.57;;;12.00;99.90;;;;;;5094243;28;20158;-80
2023/04/23 00:54:01;;;;;;;13.17;10.47;;;12.00;99.90;;;;;;5076569;28;20238;-78
2023/04/23 00:56:27;;;;;;;12.10;9.73;;;12.10;99.90;;;;;;5076329;28;20176;-79
2023/04/23 00:58:55;;;;;;;12.50;10.40;;;12.10;99.90;;;;;;5076500;28;20164;-79
2023/04/23 01:01:21;;;;;;;14.70;11.43;;;12.10;99.90;;;;;;5076368;28;20197;-79
2023/04/23 01:03:52;;;;;;;13.63;10.60;;;12.00;99.90;;;;;;5075664;28;20172;-78
2023/04/23 01:06:18;;;;;;;12.67;10.17;;;12.00;99.90;;;;;;5094352;28;20172;-79
2023/04/23 01:08:46;;;;;;;11.80;10.30;;;11.80;99.90;;;;;;5075976;28;20162;-79
2023/04/23 01:11:15;;;;;;;12.97;10.53;;;11.90;99.90;;;;;;5076719;28;20214;-80
2023/04/23 01:13:42;;;;;;;13.40;10.30;;;11.90;99.90;;;;;;5095085;28;20164;-78
2023/04/23 01:16:09;;;;;;;13.13;10.03;;;11.80;99.90;;;;;;5076057;28;20653;-79
2023/04/23 01:18:35;;;;;;;13.17;9.97;;;11.90;99.90;;;;;;5094645;28;20183;-78
2023/04/23 01:21:03;;;;;;;13.47;9.90;;;11.90;99.90;;;;;;5076671;28;20188;-78
2023/04/23 01:23:29;;;;;;;13.67;10.20;;;11.90;99.90;;;;;;5076795;28;20176;-79
2023/04/23 01:25:56;;;;;;;12.40;9.43;;;12.00;99.90;;;;;;5095047;28;20168;-79
2023/04/23 01:28:23;;;;;;;12.97;9.33;;;12.00;99.90;;;;;;5076591;28;20269;-78
2023/04/23 01:30:49;;;;;;;11.63;9.03;;;12.00;99.90;;;;;;5075646;28;20272;-79
2023/04/23 01:33:15;;;;;;;10.53;8.67;;;12.00;99.90;;;;;;5094218;28;20209;-79
2023/04/23 01:35:42;;;;;;;11.83;9.03;;;12.10;99.90;;;;;;5075321;28;20172;-79
2023/04/23 01:38:10;;;;;;;9.80;7.57;;;12.10;99.90;;;;;;5075788;28;20179;-79
2023/04/23 01:40:36;;;;;;;9.30;7.50;;;12.20;99.90;;;;;;5093570;28;20646;-79
2023/04/23 01:43:04;;;;;;;9.27;7.13;;;12.30;99.90;;;;;;5093448;28;20173;-79
2023/04/23 01:45:32;;;;;;;10.37;7.17;;;12.50;99.90;;;;;;5075600;28;20650;-79
2023/04/23 01:47:59;;;;;;;10.17;7.63;;;12.40;99.90;;;;;;5074977;28;20164;-80
2023/04/23 01:50:26;;;;;;;9.37;7.10;;;12.50;99.90;;;;;;5093358;28;20184;-77
2023/04/23 01:52:53;;;;;;;9.13;7.43;;;12.50;99.90;;;;;;5075399;28;20173;-79
2023/04/23 01:55:19;;;;;;;11.30;7.87;;;12.50;99.90;;;;;;5075541;28;20262;-79
2023/04/23 01:57:48;;;;;;;9.90;8.10;;;12.50;99.90;;;;;;5076156;28;20170;-79
2023/04/23 02:00:14;;;;;;;9.63;7.63;;;12.60;99.90;;;;;;5075041;28;20171;-79
2023/04/23 02:02:41;;;;;;;8.90;7.27;;;12.70;99.90;;;;;;5092109;28;20174;-79
2023/04/23 02:05:14;;;;;;;10.93;7.37;;;12.60;99.90;;;;;;5074753;28;20170;-76
2023/04/23 02:07:40;;;;;;;9.60;7.53;;;12.70;99.90;;;;;;5074726;28;20178;-76
2023/04/23 02:10:07;;;;;;;12.67;7.77;;;12.50;99.90;;;;;;5074548;28;20192;-76
2023/04/23 02:12:32;;;;;;;8.30;7.20;;;12.70;99.90;;;;;;5091488;28;20169;-76
2023/04/23 02:14:58;;;;;;;11.37;7.60;;;12.70;99.90;;;;;;5074581;28;20159;-75
2023/04/23 02:17:24;;;;;;;9.23;8.00;;;12.50;99.90;;;;;;5092433;28;20182;-76
2023/04/23 02:19:50;;;;;;;8.23;7.03;;;12.50;99.90;;;;;;5074401;28;20180;-75
2023/04/23 02:22:18;;;;;;;9.40;7.63;;;12.40;99.90;;;;;;5092793;28;20244;-76
2023/04/23 02:24:46;;;;;;;9.90;7.37;;;12.30;99.90;;;;;;5074365;28;20574;-77
2023/04/23 02:27:12;;;;;;;12.13;7.57;;;12.20;99.90;;;;;;5074881;28;20169;-77
2023/04/23 02:29:38;;;;;;;11.73;7.57;;;12.10;99.90;;;;;;5095450;28;20680;-77
2023/04/23 02:32:04;;;;;;;12.07;7.17;;;12.10;99.90;;;;;;5078272;28;20187;-76
2023/04/23 02:34:30;;;;;;;11.97;8.00;;;12.10;99.90;;;;;;5096675;28;20162;-77
2023/04/23 02:36:56;;;;;;;11.80;8.00;;;12.10;99.90;;;;;;5078665;28;20247;-77
2023/04/23 02:39:22;;;;;;;9.33;7.40;;;12.00;99.90;;;;;;5078640;28;20205;-76
2023/04/23 02:41:47;;;;;;;10.53;7.40;;;12.00;99.90;;;;;;5096413;28;20252;-76
2023/04/23 02:44:13;;;;;;;9.93;7.67;;;11.90;99.90;;;;;;5078364;28;20167;-76
2023/04/23 02:46:39;;;;;;;13.37;8.13;;;11.80;99.90;;;;;;5078269;28;20164;-75
2023/04/23 02:49:05;;;;;;;9.43;7.80;;;11.80;99.90;;;;;;5095078;28;20192;-76
2023/04/23 02:51:31;;;;;;;9.53;7.77;;;11.90;99.90;;;;;;5096249;28;20175;-76
2023/04/23 02:53:57;;;;;;;11.00;8.20;;;11.90;99.90;;;;;;5078384;28;20182;-76
2023/04/23 02:56:23;;;;;;;11.77;7.67;;;11.90;99.90;;;;;;5096195;28;20169;-76
2023/04/23 02:58:50;;;;;;;11.70;8.70;;;11.80;99.90;;;;;;5077876;28;20184;-76
2023/04/23 03:01:17;;;;;;;11.00;8.40;;;11.80;99.90;;;;;;5077790;28;20184;-76
2023/04/23 03:03:43;;;;;;;11.97;8.37;;;11.80;99.90;;;;;;5078225;28;20171;-77
2023/04/23 03:06:08;;;;;;;10.27;7.77;;;11.90;99.90;;;;;;5094749;28;20164;-77
2023/04/23 03:08:35;;;;;;;10.50;7.93;;;11.80;99.90;;;;;;5096065;28;20185;-77
2023/04/23 03:11:01;;;;;;;10.07;8.43;;;11.70;99.90;;;;;;5077632;28;20208;-76
2023/04/23 03:13:27;;;;;;;11.63;9.30;;;11.80;99.90;;;;;;5096032;28;20536;-76
2023/04/23 03:15:54;;;;;;;12.73;8.57;;;11.80;99.90;;;;;;5095736;28;20152;-78
2023/04/23 03:18:20;;;;;;;10.97;8.47;;;11.90;99.90;;;;;;5076485;28;20285;-76
2023/04/23 03:20:46;;;;;;;11.67;8.10;;;11.70;99.90;;;;;;5076454;28;20160;-76
2023/04/23 03:23:12;;;;;;;11.53;8.27;;;11.60;99.90;;;;;;5094474;28;20207;-76
2023/04/23 03:25:38;;;;;;;10.40;8.20;;;11.60;99.90;;;;;;5076436;28;20205;-76
2023/04/23 03:28:05;;;;;;;10.17;7.80;;;11.50;99.90;;;;;;5076128;28;20215;-76
2023/04/23 03:30:32;;;;;;;9.87;7.83;;;11.50;99.90;;;;;;5094111;28;20200;-76
2023/04/23 03:33:01;;;;;;;10.03;8.10;;;11.50;99.90;;;;;;5076261;28;20576;-79
2023/04/23 03:35:29;;;;;;;11.33;7.60;;;11.40;99.90;;;;;;5076110;28;20191;-76
2023/04/23 03:37:56;;;;;;;11.27;7.70;;;11.40;99.90;;;;;;5075665;28;20179;-78
2023/04/23 03:40:22;;;;;;;11.37;7.90;;;11.50;99.90;;;;;;5076329;28;20189;-78
2023/04/23 03:42:47;;;;;;;10.63;7.13;;;11.40;99.90;;;;;;5094346;28;20159;-78
2023/04/23 03:45:15;;;;;;;8.33;6.67;;;11.30;99.90;;;;;;5075840;28;20178;-77
2023/04/23 03:47:42;;;;;;;10.67;7.40;;;11.20;99.90;;;;;;5076114;28;20175;-78
2023/04/23 03:50:09;;;;;;;8.50;6.77;;;11.40;99.90;;;;;;5076018;28;20313;-77
2023/04/23 03:52:35;;;;;;;10.07;6.23;;;11.40;99.90;;;;;;5075957;28;20295;-77
2023/04/23 03:55:01;;;;;;;12.17;6.73;;;11.40;99.90;;;;;;5076142;28;20634;-76
2023/04/23 03:57:27;;;;;;;10.70;6.77;;;11.40;99.90;;;;;;5093962;28;20151;-76
2023/04/23 03:59:53;;;;;;;9.30;6.30;;;11.40;99.90;;;;;;5092321;28;20179;-76
2023/04/23 04:02:19;;;;;;;9.57;7.03;;;11.40;99.90;;;;;;5075842;28;20187;-77
2023/04/23 04:04:45;;;;;;;11.20;6.53;;;11.30;99.90;;;;;;5075454;28;20185;-77
2023/04/23 04:07:11;;;;;;;10.50;6.70;;;11.20;99.90;;;;;;5093916;28;20168;-77
2023/04/23 04:09:37;;;;;;;7.20;6.37;;;11.20;99.90;;;;;;5075619;28;20199;-76
2023/04/23 04:12:04;;;;;;;9.93;6.67;;;11.30;99.90;;;;;;5075363;28;20175;-78
2023/04/23 04:14:30;;;;;;;11.20;7.13;;;11.40;99.90;;;;;;5075389;28;20218;-76
2023/04/23 04:16:56;;;;;;;10.03;6.77;;;11.40;99.90;;;;;;5035286;28;1138849;-78
2023/04/23 04:19:22;;;;;;;10.77;7.07;;;11.30;99.90;;;;;;5093329;28;20180;-77
2023/04/23 04:21:47;;;;;;;9.17;6.60;;;11.30;99.90;;;;;;5076492;28;20174;-76
2023/04/23 04:24:13;;;;;;;10.63;7.37;;;11.30;99.90;;;;;;5094779;28;20255;-77
2023/04/23 04:26:39;;;;;;;9.87;6.90;;;11.20;99.90;;;;;;5076884;28;20170;-77
2023/04/23 04:29:08;;;;;;;9.87;6.50;;;11.20;99.90;;;;;;5076163;28;20185;-77
2023/04/23 04:31:33;;;;;;;10.60;6.57;;;11.20;99.90;;;;;;5094897;28;20171;-76
2023/04/23 04:33:59;;;;;;;9.77;6.37;;;11.20;99.90;;;;;;5077000;28;20233;-78
2023/04/23 04:36:25;;;;;;;8.57;6.47;;;11.10;99.90;;;;;;5076990;28;20525;-76
2023/04/23 04:38:54;;;;;;;9.37;6.13;;;11.10;99.90;;;;;;5076444;28;20196;-76
2023/04/23 04:41:24;;;;;;;11.20;6.03;;;11.20;99.90;;;;;;5076082;28;20171;-76
2023/04/23 04:43:51;;;;;;;8.53;6.33;;;11.20;99.90;;;;;;5076305;28;20175;-75
2023/04/23 04:46:20;;;;;;;10.67;6.43;;;11.10;99.90;;;;;;5092834;28;20178;-76
2023/04/23 04:48:49;;;;;;;11.30;7.23;;;11.20;99.90;;;;;;5076164;28;20638;-76
2023/04/23 04:51:16;;;;;;;13.03;6.30;;;11.10;99.90;;;;;;5075339;28;20190;-77
2023/04/23 04:53:41;;;;;;;11.13;5.40;;;11.20;99.90;;;;;;5075928;28;20175;-76
2023/04/23 04:56:07;;;;;;;10.23;5.70;;;11.20;99.90;;;;;;5075589;28;20589;-76
2023/04/23 04:58:34;;;;;;;8.37;5.07;;;11.20;99.90;;;;;;5076181;28;20227;-76
2023/04/23 05:01:00;;;;;;;7.33;5.73;;;11.20;99.90;;;;;;5075836;28;20187;-77
2023/04/23 05:03:26;;;;;;;8.73;5.60;;;11.10;99.90;;;;;;5093813;28;20528;-76
2023/04/23 05:05:55;;;;;;;12.73;5.40;;;11.20;99.90;;;;;;5075524;28;20588;-76
2023/04/23 05:08:30;;;;;;;8.00;5.33;;;11.20;99.90;;;;;;5094392;28;20199;-76
2023/04/23 05:10:56;;;;;;;7.57;5.47;;;11.30;99.90;;;;;;5075559;28;20213;-76
2023/04/23 05:13:26;;;;;;;11.47;5.83;;;11.30;99.90;;;;;;5094278;28;20629;-77
2023/04/23 05:15:58;;;;;;;9.30;4.90;;;11.30;99.90;;;;;;5094323;28;20259;-76
2023/04/23 05:18:30;;;;;;;8.57;4.23;;;11.40;99.90;;;;;;5093938;28;20183;-76
2023/04/23 05:20:58;;;;;;;9.00;4.37;;;11.30;99.90;;;;;;5094070;28;20527;-76
2023/04/23 05:23:24;;;;;;;7.27;4.53;;;11.20;99.90;;;;;;5075570;28;20315;-75
2023/04/23 05:25:54;;;;;;;8.27;4.20;;;11.20;99.90;;;;;;5075298;28;20260;-77
2023/04/23 05:28:21;;;;;;;8.43;4.47;;;11.20;99.90;;;;;;5075690;28;20179;-77
2023/04/23 05:30:48;;;;;;;8.80;3.93;;;11.40;99.90;;;;;;5075174;28;20665;-77
2023/04/23 05:33:24;;;;;;;9.43;4.47;;;11.60;99.90;;;;;;5074897;28;20641;-76
2023/04/23 05:36:00;;;;;;;9.03;4.27;;;11.60;99.90;;;;;;5074913;28;20224;-76
2023/04/23 05:38:27;;;;;;;6.27;3.17;;;11.60;99.90;;;;;;5075510;28;20638;-77
2023/04/23 05:40:55;;;;;;;6.37;3.43;;;11.50;99.90;;;;;;5061757;28;20664;-75
2023/04/23 05:43:21;;;;;;;10.57;4.10;;;11.40;99.90;;;;;;5075339;28;20202;-75
2023/04/23 05:46:13;;;;;;;9.00;3.50;;;11.40;99.90;;;;;;5075540;28;20220;-75
2023/04/23 05:48:39;;;;;;;6.80;3.47;;;11.40;99.90;;;;;;5075695;28;20252;-77
2023/04/23 05:51:24;;;;;;;6.77;3.33;;;11.40;99.90;;;;;;5075261;28;20210;-76
2023/04/23 05:53:53;;;;;;;6.50;3.17;;;11.50;99.90;;;;;;5075514;28;20529;-77
2023/04/23 05:56:21;;;;;;;8.30;3.83;;;11.50;99.90;;;;;;5075346;28;20256;-77
2023/04/23 05:58:47;;;;;;;8.03;3.43;;;11.60;99.90;;;;;;5075925;28;20212;-77
2023/04/23 06:01:37;;;;;;;9.50;3.80;;;11.60;99.90;;;;;;5075462;28;20186;-77
2023/04/23 06:04:07;;;;;;;10.13;3.80;;;11.70;99.90;;;;;;5075586;28;20160;-76
2023/04/23 06:06:38;;;;;;;6.33;3.47;;;11.90;99.90;;;;;;5093461;28;20153;-76
2023/04/23 06:09:11;;;;;;;7.73;3.37;;;11.80;99.90;;;;;;5075193;28;20168;-77
2023/04/23 06:12:17;;;;;;;8.43;3.90;;;11.80;99.90;;;;;;5075085;28;20260;-77
2023/04/23 06:15:29;;;;;;;6.97;3.30;;;11.90;99.90;;;;;;5093154;28;20151;-76
2023/04/23 06:17:58;;;;;;;7.73;2.90;;;12.10;99.90;;;;;;5074754;28;20195;-76
2023/04/23 06:20:28;;;;;;;9.90;2.93;;;12.10;99.90;;;;;;5093587;28;20617;-76
2023/04/23 06:22:56;;;;;;;8.73;2.70;;;11.90;99.90;;;;;;5074910;28;20257;-76
2023/04/23 06:25:24;;;;;;;7.53;3.13;;;11.90;99.90;;;;;;5075588;28;20192;-76
2023/04/23 06:27:53;;;;;;;8.17;3.03;;;12.00;99.90;;;;;;5075100;28;20168;-75
2023/04/23 06:30:20;;;;;;;6.93;2.53;;;12.10;99.90;;;;;;5074846;28;20249;-76
2023/04/23 06:32:51;;;;;;;6.27;2.87;;;12.20;99.90;;;;;;5074606;28;20641;-75
2023/04/23 06:35:18;;;;;;;5.67;2.70;;;12.50;99.90;;;;;;5093032;28;20527;-77
2023/04/23 06:37:44;;;;;;;6.23;2.73;;;12.60;99.90;;;;;;5074720;28;20170;-76
2023/04/23 06:40:10;;;;;;;5.97;2.53;;;12.50;99.90;;;;;;5075145;28;20168;-76
2023/04/23 06:42:37;;;;;;;9.20;2.90;;;12.40;99.90;;;;;;5091823;28;20533;-75
2023/04/23 06:45:04;;;;;;;6.77;2.77;;;12.40;99.90;;;;;;5075206;28;20172;-76
2023/04/23 06:47:39;;;;;;;7.80;2.77;;;12.50;99.90;;;;;;5092905;28;20170;-75
2023/04/23 06:50:07;;;;;;;9.30;2.90;;;12.60;99.90;;;;;;5074851;28;20191;-74
2023/04/23 06:52:35;;;;;;;5.93;2.47;;;12.70;99.90;;;;;;5074688;28;20160;-75
2023/04/23 06:55:05;;;;;;;9.57;2.53;;;12.60;99.90;;;;;;5075087;28;20190;-76
2023/04/23 06:57:40;;;;;;;7.40;2.87;;;12.50;99.90;;;;;;5074999;28;20164;-76
2023/04/23 07:00:08;;;;;;;11.00;3.17;;;12.60;99.90;;;;;;5075118;28;20169;-76
2023/04/23 07:02:36;;;;;;;6.87;3.00;;;12.80;99.90;;;;;;5092488;28;20241;-76
2023/04/23 07:05:02;;;;;;;7.97;2.33;;;12.90;99.90;;;;;;5091795;28;20184;-75
2023/04/23 07:07:28;;;;;;;8.93;2.67;;;12.80;99.90;;;;;;5086915;28;20537;-74
2023/04/23 07:09:54;;;;;;;6.93;2.60;;;12.80;99.90;;;;;;5083967;28;20192;-75
2023/04/23 07:12:19;;;;;;;7.17;3.07;;;12.90;99.90;;;;;;5092755;28;20151;-75
2023/04/23 07:14:45;;;;;;;8.90;2.40;;;13.00;99.90;;;;;;5094444;28;20157;-74
2023/04/23 07:17:11;;;;;;;5.90;2.80;;;13.10;99.90;;;;;;5096404;28;20182;-75
2023/04/23 07:19:37;;;;;;;7.87;2.53;;;13.10;99.90;;;;;;5096770;28;20566;-74
2023/04/23 07:22:03;;;;;;;6.60;2.77;;;13.00;99.90;;;;;;5096301;28;20538;-77
2023/04/23 07:24:29;;;;;;;9.23;2.77;;;13.10;99.90;;;;;;5077715;28;20220;-73
2023/04/23 07:26:55;;;;;;;5.60;2.63;;;13.10;99.90;;;;;;5096259;28;20185;-74
2023/04/23 07:29:21;;;;;;;9.93;3.00;;;13.30;99.90;;;;;;5096330;28;20209;-74
2023/04/23 07:31:47;;;;;;;7.83;2.27;;;13.40;99.90;;;;;;5096682;28;20158;-75
2023/04/23 07:34:13;;;;;;;5.70;2.67;;;13.50;99.90;;;;;;5078306;28;20188;-74
2023/04/23 07:36:38;;;;;;;8.87;3.17;;;13.50;99.90;;;;;;5095995;28;20154;-75
2023/04/23 07:39:05;;;;;;;5.73;2.60;;;13.70;99.90;;;;;;5096012;28;20170;-74
2023/04/23 07:41:32;;;;;;;11.03;2.80;;;14.00;99.90;;;;;;5095020;28;20670;-73
2023/04/23 07:43:58;;;;;;;9.77;2.50;;;14.10;99.90;;;;;;5096036;28;20169;-73
2023/04/23 07:46:24;;;;;;;8.33;2.83;;;14.20;99.90;;;;;;5096188;28;20177;-73
2023/04/23 07:48:50;;;;;;;7.47;2.73;;;14.10;99.90;;;;;;5096092;28;20515;-74
2023/04/23 07:51:17;;;;;;;9.63;2.27;;;14.20;99.90;;;;;;5103834;28;20730;-74
2023/04/23 07:53:42;;;;;;;4.93;2.20;;;14.30;99.90;;;;;;5095956;28;20173;-74
2023/04/23 07:56:09;;;;;;;6.00;2.40;;;14.50;99.90;;;;;;5077850;28;20195;-74
2023/04/23 07:58:35;;;;;;;9.97;2.50;;;14.60;99.90;;;;;;5077918;28;20566;-75
2023/04/23 08:01:01;;;;;;;8.20;2.73;;;14.70;99.90;;;;;;5077391;28;20294;-75
2023/04/23 08:03:27;;;;;;;7.23;2.30;;;14.70;99.90;;;;;;5095329;28;20190;-74
2023/04/23 08:05:53;;;;;;;3.97;1.83;;;14.80;99.90;;;;;;5095267;28;20164;-75
2023/04/23 08:08:20;;;;;;;9.37;2.47;;;14.80;99.90;;;;;;5095288;28;20170;-74
2023/04/23 08:10:45;;;;;;;6.77;2.57;;;14.70;99.90;;;;;;5095385;28;20250;-74
2023/04/23 08:13:13;;;;;;;7.83;2.30;;;14.80;99.90;;;;;;5095511;28;20166;-74
2023/04/23 08:15:39;;;;;;;9.00;1.77;;;14.80;99.90;;;;;;5094855;28;20170;-74
2023/04/23 08:18:06;;;;;;;5.53;2.20;;;14.80;99.90;;;;;;5094869;28;20235;-75
2023/04/23 08:20:31;;;;;;;6.97;2.17;;;14.90;99.90;;;;;;5076705;28;20177;-74
2023/04/23 08:22:57;;;;;;;5.67;1.90;;;15.10;99.90;;;;;;5077276;28;20222;-75
2023/04/23 08:25:24;;;;;;;10.13;2.37;;;14.90;99.90;;;;;;5093568;28;20220;-73
2023/04/23 08:27:49;;;;;;;5.97;2.07;;;14.90;99.90;;;;;;5076978;28;20171;-74
2023/04/23 08:30:15;;;;;;;10.03;1.97;;;14.90;99.90;;;;;;5095028;28;20275;-74
2023/04/23 08:32:42;;;;;;;7.13;2.30;;;15.00;99.90;;;;;;5095188;28;20155;-73
2023/04/23 08:35:08;;;;;;;7.70;2.37;;;15.20;99.90;;;;;;5094750;28;20241;-73
2023/04/23 08:37:35;;;;;;;6.63;2.83;;;15.40;99.90;;;;;;5094999;28;20207;-73
2023/04/23 08:40:03;;;;;;;10.73;3.77;;;15.50;99.90;;;;;;5094565;28;20219;-73
2023/04/23 08:42:41;;;;;;;11.83;3.73;;;15.80;99.90;;;;;;5095121;28;20635;-73
2023/04/23 08:45:07;;;;;;;7.77;2.67;;;15.90;99.90;;;;;;5094890;28;20146;-73
2023/04/23 08:47:41;;;;;;;8.03;2.00;;;16.10;99.90;;;;;;5076267;28;20174;-73
2023/04/23 08:50:11;;;;;;;7.90;1.80;;;16.30;99.90;;;;;;5094395;28;20190;-76
2023/04/23 08:52:41;;;;;;;8.50;2.03;;;16.20;99.90;;;;;;5076491;28;20159;-75
2023/04/23 08:55:13;;;;;;;5.87;1.80;;;16.10;99.90;;;;;;5094296;28;20619;-74
2023/04/23 08:57:57;;;;;;;8.17;1.90;;;16.10;99.90;;;;;;5094756;28;20178;-83
2023/04/23 09:00:24;;;;;;;6.50;1.60;;;16.10;99.90;;;;;;5094706;28;20166;-73
2023/04/23 09:02:51;;;;;;;7.03;1.77;;;16.00;99.90;;;;;;5094431;28;20250;-73
2023/04/23 09:05:17;;;;;;;6.40;1.63;;;16.00;99.90;;;;;;5094416;28;20507;-74
2023/04/23 09:07:43;;;;;;;11.73;2.40;;;16.20;99.90;;;;;;5094270;28;20174;-73
2023/04/23 09:10:11;;;;;;;7.30;1.70;;;16.50;99.90;;;;;;5093990;28;20575;-74
2023/04/23 09:12:39;;;;;;;4.73;1.67;;;16.60;99.90;;;;;;5094364;28;20182;-74
2023/04/23 09:15:11;;;;;;;8.70;1.80;;;16.90;99.90;;;;;;5075696;28;20165;-74
2023/04/23 09:17:48;;;;;;;5.03;1.50;;;16.90;99.90;;;;;;5093811;28;20175;-73
2023/04/23 09:20:15;;;;;;;7.77;1.70;;;16.60;99.90;;;;;;5092713;28;20178;-73
2023/04/23 09:22:51;;;;;;;9.60;1.63;;;16.90;99.90;;;;;;5093917;28;20179;-73
2023/04/23 09:25:19;;;;;;;5.90;2.47;;;17.10;99.90;;;;;;5093725;28;20249;-74
2023/04/23 09:27:47;;;;;;;4.77;1.90;;;17.10;99.90;;;;;;5094089;28;20152;-73
2023/04/23 09:30:16;;;;;;;7.80;1.80;;;17.20;99.90;;;;;;5093899;28;20283;-75
2023/04/23 09:32:44;;;;;;;5.83;1.80;;;17.20;99.90;;;;;;5093820;28;20174;-75
2023/04/23 09:35:18;;;;;;;4.70;1.50;;;17.60;99.90;;;;;;5093628;28;20180;-73
2023/04/23 09:37:47;;;;;;;5.67;1.30;;;17.50;99.90;;;;;;5093120;28;20184;-73
2023/04/23 09:40:14;;;;;;;4.50;1.30;;;17.40;99.90;;;;;;5093596;28;20630;-73
2023/04/23 09:42:49;;;;;;;5.27;1.40;;;17.40;99.90;;;;;;5077273;28;20164;-74
2023/04/23 09:45:16;;;;;;;6.90;1.70;;;17.20;99.90;;;;;;5081746;28;20169;-73
2023/04/23 09:47:53;;;;;;;7.63;1.73;;;17.20;99.90;;;;;;5093742;28;20188;-74
2023/04/23 09:50:40;;;;;;;4.73;1.73;;;17.30;99.90;;;;;;5093700;28;20180;-75
2023/04/23 09:53:09;;;;;;;4.50;1.67;;;17.20;99.90;;;;;;5093419;28;20175;-75
2023/04/23 09:55:37;;;;;;;7.73;1.43;;;17.40;99.90;;;;;;5091965;28;20617;-73
2023/04/23 09:58:05;;;;;;;7.33;1.30;;;17.50;99.90;;;;;;5093229;28;20155;-74
2023/04/23 10:00:35;;;;;;;3.93;1.03;;;17.30;99.90;;;;;;5091868;28;20163;-74
2023/04/23 10:03:02;;;;;;;4.60;1.33;;;17.00;99.90;;;;;;5093435;28;20636;-75
2023/04/23 10:05:28;;;;;;;4.60;1.60;;;16.90;99.90;;;;;;5093517;28;20147;-75
2023/04/23 10:08:00;;;;;;;4.67;1.37;;;17.00;99.90;;;;;;5093809;28;20180;-73
2023/04/23 10:10:26;;;;;;;4.40;1.17;;;16.80;99.90;;;;;;5092305;28;20658;-75
2023/04/23 10:12:55;;;;;;;3.50;0.97;;;16.80;99.90;;;;;;5092379;28;20158;-75
2023/04/23 10:15:24;;;;;;;7.83;1.40;;;16.70;99.90;;;;;;5093501;28;20630;-73
2023/04/23 10:17:50;;;;;;;7.40;1.57;;;16.80;99.90;;;;;;5092045;28;20301;-74
2023/04/23 10:20:16;;;;;;;6.53;1.90;;;16.80;99.90;;;;;;5093149;28;20182;-73
2023/04/23 10:22:45;;;;;;;4.93;1.57;;;17.10;99.90;;;;;;5093621;28;20174;-74
2023/04/23 10:25:20;;;;;;;8.23;1.53;;;17.30;99.90;;;;;;5092960;28;20710;-74
2023/04/23 10:27:48;;;;;;;7.80;1.53;;;17.30;99.90;;;;;;5093553;28;20611;-74
2023/04/23 10:30:16;;;;;;;6.80;1.33;;;17.10;99.90;;;;;;5092478;28;20263;-74
2023/04/23 10:32:44;;;;;;;4.80;1.27;;;16.90;99.90;;;;;;5091788;28;20163;-74
2023/04/23 10:35:10;;;;;;;5.90;1.20;;;16.80;99.90;;;;;;5093103;28;20632;-74
2023/04/23 10:37:39;;;;;;;8.13;1.50;;;17.10;99.90;;;;;;5093349;28;20151;-74
2023/04/23 10:40:12;;;;;;;7.33;1.60;;;17.40;99.90;;;;;;5093198;28;20170;-75
2023/04/23 10:42:44;;;;;;;4.30;1.17;;;17.20;99.90;;;;;;5093111;28;20641;-74
2023/04/23 10:45:18;;;;;;;5.67;1.30;;;17.50;99.90;;;;;;5092917;28;20144;-74
2023/04/23 10:47:45;;;;;;;6.50;1.20;;;17.50;99.90;;;;;;5092974;28;20867;-74
2023/04/23 10:50:33;;;;;;;7.50;1.20;;;17.60;99.90;;;;;;5095296;28;20202;-74
2023/04/23 10:53:01;;;;;;;4.20;1.10;;;17.10;99.90;;;;;;5096673;28;20196;-74
2023/04/23 10:55:29;;;;;;;7.40;1.30;;;17.30;99.90;;;;;;5087717;28;20235;-73
2023/04/23 10:57:57;;;;;;;8.13;1.70;;;17.50;99.90;;;;;;5088698;28;20187;-74
2023/04/23 11:00:23;;;;;;;8.27;1.43;;;17.80;99.90;;;;;;5072328;28;20182;-74
2023/04/23 11:02:50;;;;;;;6.50;1.70;;;18.10;99.90;;;;;;5084523;28;20528;-74
2023/04/23 11:05:16;;;;;;;3.77;1.17;;;18.40;99.90;;;;;;5086637;28;20178;-73
2023/04/23 11:08:02;;;;;;;4.27;1.53;;;18.50;99.90;;;;;;5082553;28;20674;-74
2023/04/23 11:10:30;;;;;;;5.60;1.40;;;18.20;99.90;;;;;;5086644;28;20191;-74
2023/04/23 11:12:55;;;;;;;8.60;1.53;;;18.30;99.90;;;;;;5116375;28;20246;-75
2023/04/23 11:15:21;;;;;;;4.00;1.20;;;18.40;99.90;;;;;;5114375;28;20255;-74
2023/04/23 11:17:52;;;;;;;7.13;1.63;;;18.10;99.90;;;;;;5101566;28;20190;-75
2023/04/23 11:20:19;;;;;;;6.53;1.40;;;17.50;99.90;;;;;;5078272;28;20256;-74
2023/04/23 11:22:51;;;;;;;5.30;1.50;;;17.50;99.90;;;;;;5104692;28;20534;-73
2023/04/23 11:25:29;;;;;;;6.60;2.07;;;17.50;99.90;;;;;;5113000;28;20531;-73
2023/04/23 11:27:57;;;;;;;9.80;1.80;;;17.70;99.90;;;;;;5098081;28;20568;-74
2023/04/23 11:30:29;;;;;;;6.47;1.33;;;17.90;99.90;;;;;;5116564;28;20180;-73
2023/04/23 11:32:58;;;;;;;4.43;1.07;;;18.10;99.90;;;;;;5098581;28;20173;-77
2023/04/23 11:35:27;;;;;;;5.63;1.37;;;18.10;99.90;;;;;;5117227;28;20203;-78
2023/04/23 11:38:07;;;;;;;8.13;1.30;;;18.50;99.90;;;;;;5112851;28;20268;-77
2023/04/23 11:40:33;;;;;;;5.03;1.30;;;18.50;99.90;;;;;;5111796;28;20592;-79
2023/04/23 11:43:03;;;;;;;3.60;1.30;;;18.50;99.90;;;;;;5081524;28;20177;-78
2023/04/23 11:45:29;;;;;;;3.80;0.97;;;18.40;99.90;;;;;;5095545;28;20184;-77
2023/04/23 11:48:04;;;;;;;4.53;1.10;;;18.30;99.90;;;;;;5095658;28;20578;-77
2023/04/23 11:50:35;;;;;;;8.23;1.70;;;18.20;99.90;;;;;;5078746;28;20185;-77
2023/04/23 11:53:06;;;;;;;8.87;1.60;;;17.60;99.90;;;;;;5096666;28;20565;-77
2023/04/23 11:55:31;;;;;;;5.53;1.53;;;17.40;99.90;;;;;;5096298;28;20171;-78
2023/04/23 11:57:58;;;;;;;4.17;1.27;;;17.10;99.90;;;;;;5095665;28;20200;-77
2023/04/23 12:00:25;;;;;;;2.87;1.10;;;16.70;99.90;;;;;;5086598;28;20232;-78
2023/04/23 12:02:52;;;;;;;11.67;1.40;;;16.40;99.90;;;;;;5096397;28;20163;-77
2023/04/23 12:05:27;;;;;;;8.60;1.70;;;16.00;99.90;;;;;;5113421;28;20177;-77
2023/04/23 12:08:15;;;;;;;7.00;1.90;;;15.80;99.90;;;;;;5116066;28;20525;-78
2023/04/23 12:11:00;;;;;;;7.93;2.03;;;15.70;99.90;;;;;;5115868;28;20714;-78
2023/04/23 12:13:29;;;;;;;5.67;1.53;;;15.60;99.90;;;;;;5116303;28;20521;-77
2023/04/23 12:16:02;;;;;;;6.53;1.90;;;15.40;99.90;;;;;;5098186;28;20170;-78
2023/04/23 12:18:52;;;;;;;6.77;1.77;;;15.10;99.90;;;;;;5115991;28;20185;-78
2023/04/23 12:21:18;;;;;;;8.03;2.30;;;14.90;99.90;;;;;;5115951;28;20154;-76
2023/04/23 12:23:57;;;;;;;5.90;1.77;;;14.80;99.90;;;;;;5116269;28;20505;-79
2023/04/23 12:26:36;;;;;;;4.00;1.53;;;14.90;99.90;;;;;;5115677;28;20264;-78
2023/04/23 12:29:06;;;;;;;8.03;1.90;;;14.90;99.90;;;;;;5115607;28;20527;-77
2023/04/23 12:31:36;;;;;;;3.90;1.23;;;14.80;99.90;;;;;;5115934;28;20188;-77
2023/04/23 12:34:09;;;;;;;6.63;1.50;;;14.80;99.90;;;;;;5115723;28;20522;-77
2023/04/23 12:36:50;;;;;;;5.67;1.70;;;14.70;99.90;;;;;;5115805;28;20161;-78
2023/04/23 12:39:34;;;;;;;5.50;1.80;;;14.60;99.90;;;;;;5097492;28;20161;-77
2023/04/23 12:42:05;;;;;;;6.37;2.03;;;14.60;99.90;;;;;;5115576;28;20533;-77
2023/04/23 12:44:46;;;;;;;3.43;1.50;;;14.60;99.90;;;;;;5097383;28;20533;-77
2023/04/23 12:47:24;;;;;;;6.47;1.80;;;14.70;99.90;;;;;;5115469;28;20233;-77
2023/04/23 12:49:54;;;;;;;4.27;1.83;;;14.80;99.90;;;;;;5115172;28;20207;-77